EMV weather

Emporia Greensville Regional Airport
Emporia, Virginia, United States

Public forecast

Using degrees Fahrenheit for public forecast. Weather courtesy of forecast.io.

Current aviation weather report (METAR) for Emporia Greensville Regional Airport

Retrieved 2020/08/06 06:35 UTC (0 seconds ago):

KEMV 060635Z AUTO 00000KT 7SM SCT095 23/23 A3007 RMK AO2 T02310230

Closest aviation forecast (TAF) to Emporia Greensville Regional Airport

Closest forecast is Richmond International Airport, 49.7 nm (92.1 km) N. Retrieved 2020/08/06 06:22 UTC (13 minutes ago):

TAF KRIC 060520Z 0606/0706 VRB03KT P6SM SCT025 BKN150 TEMPO 0607/0611 4SM BR BKN025 FM061100 VRB03KT P6SM BKN025 FM061500 14005KT P6SM VCTS BKN030CB FM062200 12005KT P6SM VCSH BKN080 FM070100 16004KT P6SM BKN090